createdAt,value
2023-04-16T00:04:58.271Z,7.43
2023-04-16T00:09:59.850Z,17.52
2023-04-16T00:15:01.284Z,11.80
2023-04-16T00:20:02.932Z,13.27
2023-04-16T00:25:05.095Z,13.60
2023-04-16T00:30:07.560Z,6.57
2023-04-16T00:35:09.148Z,8.93
2023-04-16T00:40:11.173Z,13.77
2023-04-16T00:45:12.630Z,12.68
2023-04-16T00:50:14.357Z,18.52
2023-04-16T00:55:18.648Z,15.75
2023-04-16T01:00:21.298Z,14.45
2023-04-16T01:05:22.881Z,18.83
2023-04-16T01:10:24.340Z,16.85
2023-04-16T01:15:25.769Z,19.00
2023-04-16T01:20:27.133Z,17.80
2023-04-16T01:25:28.543Z,19.45
2023-04-16T01:30:29.962Z,21.25
2023-04-16T01:35:31.397Z,24.27
2023-04-16T01:40:32.782Z,20.02
2023-04-16T01:45:35.101Z,21.90
2023-04-16T01:50:37.630Z,18.60
2023-04-16T01:55:39.076Z,22.58
2023-04-16T02:00:40.532Z,21.20
2023-04-16T02:05:42.001Z,22.77
2023-04-16T02:10:46.424Z,17.90
2023-04-16T02:15:49.064Z,21.88
2023-04-16T02:20:50.612Z,21.02
2023-04-16T02:25:52.048Z,19.80
2023-04-16T02:30:53.475Z,22.33
2023-04-16T02:35:54.880Z,21.33
2023-04-16T02:40:56.347Z,18.60
2023-04-16T02:45:59.307Z,22.42
2023-04-16T02:51:01.033Z,25.25
2023-04-16T02:56:02.501Z,19.58
2023-04-16T03:01:04.139Z,25.42
2023-04-16T03:06:05.684Z,20.10
2023-04-16T03:11:07.572Z,24.48
2023-04-16T03:16:09.036Z,29.02
2023-04-16T03:21:10.556Z,27.73
2023-04-16T03:26:11.960Z,22.33
2023-04-16T03:31:13.517Z,24.85
2023-04-16T03:36:14.918Z,27.98
2023-04-16T03:41:16.458Z,26.50
2023-04-16T03:46:17.894Z,24.58
2023-04-16T03:51:19.493Z,25.05
2023-04-16T03:56:21.087Z,24.55
2023-04-16T04:01:22.475Z,28.17
2023-04-16T04:06:23.886Z,27.15
2023-04-16T04:11:25.292Z,26.42
2023-04-16T04:16:26.737Z,28.60
2023-04-16T04:21:29.132Z,21.90
2023-04-16T04:26:30.632Z,28.05
2023-04-16T04:31:32.258Z,31.80
2023-04-16T04:36:33.698Z,30.10
2023-04-16T04:41:36.048Z,31.60
2023-04-16T04:46:37.497Z,31.30
2023-04-16T04:51:38.904Z,37.42
2023-04-16T04:56:40.355Z,33.00
2023-04-16T05:01:42.163Z,30.50
2023-04-16T05:06:44.148Z,35.20
2023-04-16T05:11:45.498Z,24.58
2023-04-16T05:16:47.475Z,28.40
2023-04-16T05:21:49.105Z,19.70
2023-04-16T05:26:50.684Z,25.70
2023-04-16T05:31:53.025Z,28.40
2023-04-16T05:36:54.642Z,28.35
2023-04-16T05:41:56.150Z,23.33
2023-04-16T05:46:57.582Z,23.63
2023-04-16T05:51:59.256Z,22.55
2023-04-16T05:57:01.803Z,25.42
2023-04-16T06:02:03.317Z,25.45
2023-04-16T06:07:04.768Z,25.00
2023-04-16T06:12:06.476Z,22.50
2023-04-16T06:17:07.908Z,24.90
2023-04-16T06:22:09.882Z,18.92
2023-04-16T06:27:11.414Z,17.42
2023-04-16T06:32:12.909Z,19.13
2023-04-16T06:37:14.957Z,25.67
2023-04-16T06:42:16.449Z,24.63
2023-04-16T06:47:17.945Z,25.38
2023-04-16T06:52:19.403Z,24.98
2023-04-16T06:57:20.901Z,25.35
2023-04-16T07:02:22.460Z,24.70
2023-04-16T07:07:24.047Z,25.75
2023-04-16T07:12:25.686Z,27.92
2023-04-16T07:17:27.185Z,33.75
2023-04-16T07:22:28.617Z,25.88
2023-04-16T07:27:30.089Z,36.80
2023-04-16T07:32:31.563Z,28.63
2023-04-16T07:37:33.003Z,33.70
2023-04-16T07:42:34.869Z,26.77
2023-04-16T07:47:36.767Z,33.83
2023-04-16T07:52:41.310Z,31.75
2023-04-16T07:57:42.888Z,33.35
2023-04-16T08:02:44.592Z,31.50
2023-04-16T08:07:46.479Z,28.42
2023-04-16T08:12:48.083Z,36.38
2023-04-16T08:17:49.530Z,29.67
2023-04-16T08:22:51.124Z,26.75
2023-04-16T08:27:52.596Z,29.30
2023-04-16T08:32:54.376Z,32.78
2023-04-16T08:37:57.822Z,33.17
2023-04-16T08:43:02.747Z,41.47
2023-04-16T08:48:06.159Z,34.75
2023-04-16T08:53:11.341Z,33.38
2023-04-16T08:58:15.439Z,32.55
2023-04-16T09:03:17.033Z,27.55
2023-04-16T09:08:18.641Z,28.58
2023-04-16T09:13:22.231Z,30.73
2023-04-16T09:18:24.544Z,31.08
2023-04-16T09:23:25.937Z,28.88
2023-04-16T09:28:45.562Z,30.27
2023-04-16T09:34:05.501Z,32.80
2023-04-16T09:39:07.064Z,34.08
2023-04-16T09:44:08.562Z,34.20
2023-04-16T09:49:13.452Z,36.22
2023-04-16T09:54:15.884Z,33.95
2023-04-16T09:59:18.291Z,38.03
2023-04-16T10:04:20.428Z,31.80
2023-04-16T10:09:23.004Z,27.65
2023-04-16T10:14:24.499Z,35.00
2023-04-16T10:19:27.139Z,32.00
2023-04-16T10:24:30.034Z,27.85
2023-04-16T10:29:32.865Z,31.15
2023-04-16T10:34:35.199Z,28.58
2023-04-16T10:39:39.589Z,31.42
2023-04-16T10:44:44.412Z,23.42
2023-04-16T10:49:48.315Z,26.90
2023-04-16T10:54:52.531Z,29.17
2023-04-16T10:59:55.075Z,26.90
2023-04-16T11:04:57.526Z,24.63
2023-04-16T11:10:13.438Z,21.88
2023-04-16T11:15:16.656Z,35.97
2023-04-16T11:20:24.234Z,28.23
2023-04-16T11:25:34.352Z,27.65
2023-04-16T11:30:40.590Z,30.70
2023-04-16T11:35:44.394Z,28.27
2023-04-16T11:40:57.108Z,26.58
2023-04-16T11:46:02.559Z,23.10
2023-04-16T11:51:05.378Z,29.10
2023-04-16T11:56:07.219Z,26.35
2023-04-16T12:01:10.193Z,22.95
2023-04-16T12:06:13.276Z,23.40
2023-04-16T12:11:16.680Z,24.95
2023-04-16T12:16:21.227Z,22.30
2023-04-16T12:21:22.857Z,27.90
2023-04-16T12:26:25.609Z,28.70
2023-04-16T12:31:40.295Z,25.55
2023-04-16T12:36:42.611Z,22.40
2023-04-16T12:41:44.633Z,27.65
2023-04-16T12:46:47.433Z,15.35
2023-04-16T12:51:49.228Z,20.15
2023-04-16T12:56:54.156Z,19.58
2023-04-16T13:01:55.806Z,19.52
2023-04-16T13:06:57.666Z,20.55
2023-04-16T13:11:59.261Z,18.50
2023-04-16T13:17:01.572Z,20.35
2023-04-16T13:22:03.294Z,14.50
2023-04-16T13:27:06.795Z,13.52
2023-04-16T13:32:13.698Z,20.40
2023-04-16T13:37:15.272Z,22.50
2023-04-16T13:42:16.895Z,21.67
2023-04-16T13:47:26.857Z,19.55
2023-04-16T13:52:45.296Z,19.15
2023-04-16T13:57:49.195Z,21.38
2023-04-16T14:02:55.019Z,22.60
2023-04-16T14:07:56.710Z,22.90
2023-04-16T14:12:58.483Z,17.63
2023-04-16T14:18:01.226Z,15.27
2023-04-16T14:23:03.573Z,19.08
2023-04-16T14:28:05.057Z,22.05
2023-04-16T14:33:11.036Z,24.92
2023-04-16T14:38:12.888Z,19.50
2023-04-16T14:43:15.065Z,21.95
2023-04-16T14:48:16.678Z,19.15
2023-04-16T14:53:18.941Z,15.02
2023-04-16T14:58:22.317Z,23.48
2023-04-16T15:03:25.774Z,18.27
2023-04-16T15:08:27.408Z,18.75
2023-04-16T15:13:33.939Z,21.42
2023-04-16T15:18:36.032Z,19.13
2023-04-16T15:23:42.648Z,15.38
2023-04-16T15:28:46.851Z,16.08
2023-04-16T15:33:49.335Z,17.23
2023-04-16T15:38:51.239Z,17.10
2023-04-16T15:43:54.824Z,16.63
2023-04-16T15:48:59.068Z,16.00
2023-04-16T15:54:00.916Z,16.88
2023-04-16T15:59:08.841Z,19.42
2023-04-16T16:04:14.380Z,21.67
2023-04-16T16:09:17.616Z,17.57
2023-04-16T16:14:24.436Z,20.35
2023-04-16T16:19:31.179Z,22.45
2023-04-16T16:24:32.859Z,19.85
2023-04-16T16:29:38.614Z,19.73
2023-04-16T16:34:40.230Z,17.13
2023-04-16T16:39:41.782Z,19.10
2023-04-16T16:44:43.223Z,19.60
2023-04-16T16:49:44.995Z,16.27
2023-04-16T16:54:46.766Z,23.73
2023-04-16T16:59:48.570Z,18.23
2023-04-16T17:04:50.295Z,16.40
2023-04-16T17:09:51.766Z,17.15
2023-04-16T17:14:53.255Z,18.38
2023-04-16T17:19:54.817Z,22.10
2023-04-16T17:24:56.257Z,18.63
2023-04-16T17:30:01.155Z,19.88
2023-04-16T17:35:04.173Z,19.02
2023-04-16T17:40:07.719Z,22.60
2023-04-16T17:45:09.439Z,19.45
2023-04-16T17:50:11.895Z,15.20
2023-04-16T17:55:13.413Z,18.98
2023-04-16T18:00:16.137Z,18.98
2023-04-16T18:05:18.939Z,20.10
2023-04-16T18:10:20.437Z,19.98
2023-04-16T18:15:21.861Z,17.55
2023-04-16T18:20:23.322Z,20.85
2023-04-16T18:25:33.680Z,21.90
2023-04-16T18:30:39.918Z,20.95
2023-04-16T18:35:42.094Z,18.57
2023-04-16T18:40:46.797Z,18.48
2023-04-16T18:45:48.361Z,25.05
2023-04-16T18:50:49.901Z,24.35
2023-04-16T18:55:54.804Z,22.20
2023-04-16T19:00:59.873Z,23.58
2023-04-16T19:06:04.166Z,24.00
2023-04-16T19:11:07.124Z,25.65
2023-04-16T19:16:11.689Z,26.27
2023-04-16T19:21:13.578Z,23.60
2023-04-16T19:26:15.822Z,25.60
2023-04-16T19:31:17.377Z,27.05
2023-04-16T19:36:21.202Z,24.35
2023-04-16T19:41:22.716Z,28.63
2023-04-16T19:46:27.262Z,23.65
2023-04-16T19:51:28.759Z,24.67
2023-04-16T19:56:33.427Z,28.15
2023-04-16T20:01:35.334Z,26.02
2023-04-16T20:06:41.337Z,28.02
2023-04-16T20:11:43.369Z,28.17
2023-04-16T20:16:45.276Z,24.98
2023-04-16T20:21:48.001Z,26.13
2023-04-16T20:26:53.453Z,26.23
2023-04-16T20:31:55.048Z,28.40
2023-04-16T20:37:00.986Z,26.77
2023-04-16T20:42:04.287Z,28.20
2023-04-16T20:47:09.664Z,32.30
2023-04-16T20:52:17.343Z,32.67
2023-04-16T20:57:19.010Z,26.58
2023-04-16T21:02:22.448Z,36.28
2023-04-16T21:07:24.412Z,29.40
2023-04-16T21:12:26.542Z,26.35
2023-04-16T21:17:31.808Z,24.42
2023-04-16T21:22:33.397Z,30.92
2023-04-16T21:27:34.876Z,27.90
2023-04-16T21:32:41.251Z,26.35
2023-04-16T21:42:48.044Z,26.58
2023-04-16T21:47:52.982Z,28.60
2023-04-16T21:52:54.798Z,33.67
2023-04-16T21:57:58.537Z,27.60
2023-04-16T22:03:00.221Z,29.60
2023-04-16T22:08:08.193Z,34.40
2023-04-16T22:13:23.028Z,25.83
2023-04-16T22:18:25.745Z,26.75
2023-04-16T22:23:27.313Z,29.67
2023-04-16T22:28:28.779Z,31.63
2023-04-16T22:33:33.528Z,25.80
2023-04-16T22:38:36.007Z,25.52
2023-04-16T22:43:41.905Z,30.65
2023-04-16T22:48:44.591Z,33.63
2023-04-16T22:53:46.034Z,31.00
2023-04-16T22:58:49.412Z,27.77
2023-04-16T23:03:59.958Z,28.42
2023-04-16T23:09:05.204Z,33.75
2023-04-16T23:14:07.593Z,30.70
2023-04-16T23:19:14.717Z,32.20
2023-04-16T23:24:17.094Z,29.00
2023-04-16T23:29:18.783Z,32.25
2023-04-16T23:34:20.310Z,31.50
2023-04-16T23:39:21.756Z,30.45
2023-04-16T23:44:23.369Z,32.03
2023-04-16T23:49:24.948Z,28.67
2023-04-16T23:54:26.324Z,29.98
2023-04-16T23:59:27.732Z,30.52
